sensor_id;sensor_type;location;lat;lon;timestamp;pressure;altitude;pressure_sealevel;temperature;humidity
19128;BME280;9696;53.686;10.094;2023-05-19T00:01:36;102724.47;;;5.31;100.00
19128;BME280;9696;53.686;10.094;2023-05-19T00:04:06;102725.97;;;5.38;100.00
19128;BME280;9696;53.686;10.094;2023-05-19T00:06:36;102720.88;;;5.35;100.00
19128;BME280;9696;53.686;10.094;2023-05-19T00:09:06;102721.53;;;5.41;100.00
19128;BME280;9696;53.686;10.094;2023-05-19T00:11:37;102724.91;;;5.45;100.00
19128;BME280;9696;53.686;10.094;2023-05-19T00:14:08;102727.66;;;5.65;100.00
19128;BME280;9696;53.686;10.094;2023-05-19T00:16:39;102727.91;;;5.57;100.00
19128;BME280;9696;53.686;10.094;2023-05-19T00:19:09;102717.47;;;5.59;100.00
19128;BME280;9696;53.686;10.094;2023-05-19T00:21:38;102714.97;;;5.56;100.00
19128;BME280;9696;53.686;10.094;2023-05-19T00:24:07;102715.91;;;5.53;100.00
19128;BME280;9696;53.686;10.094;2023-05-19T00:26:36;102711.22;;;5.38;100.00
19128;BME280;9696;53.686;10.094;2023-05-19T00:29:06;102714.63;;;5.40;100.00
19128;BME280;9696;53.686;10.094;2023-05-19T00:31:36;102711.63;;;5.26;100.00
19128;BME280;9696;53.686;10.094;2023-05-19T00:34:06;102711.63;;;5.26;100.00
19128;BME280;9696;53.686;10.094;2023-05-19T00:36:35;102706.47;;;5.25;100.00
19128;BME280;9696;53.686;10.094;2023-05-19T00:39:05;102700.13;;;5.33;100.00
19128;BME280;9696;53.686;10.094;2023-05-19T00:41:35;102702.28;;;5.45;100.00
19128;BME280;9696;53.686;10.094;2023-05-19T00:44:05;102699.16;;;5.36;100.00
19128;BME280;9696;53.686;10.094;2023-05-19T00:46:34;102693.06;;;5.37;100.00
19128;BME280;9696;53.686;10.094;2023-05-19T00:49:06;102686.94;;;5.38;100.00
19128;BME280;9696;53.686;10.094;2023-05-19T00:51:35;102700.47;;;5.22;100.00
19128;BME280;9696;53.686;10.094;2023-05-19T00:54:05;102688.53;;;5.17;100.00
19128;BME280;9696;53.686;10.094;2023-05-19T00:56:34;102696.66;;;5.06;100.00
19128;BME280;9696;53.686;10.094;2023-05-19T00:59:03;102700.06;;;5.08;100.00
19128;BME280;9696;53.686;10.094;2023-05-19T01:01:33;102701.16;;;5.01;100.00
19128;BME280;9696;53.686;10.094;2023-05-19T01:04:03;102690.41;;;5.12;100.00
19128;BME280;9696;53.686;10.094;2023-05-19T01:06:38;102701.25;;;4.98;100.00
19128;BME280;9696;53.686;10.094;2023-05-19T01:09:07;102701.06;;;5.04;100.00
19128;BME280;9696;53.686;10.094;2023-05-19T01:11:36;102695.97;;;5.01;100.00
19128;BME280;9696;53.686;10.094;2023-05-19T01:14:05;102703.84;;;4.98;100.00
19128;BME280;9696;53.686;10.094;2023-05-19T01:16:38;102710.28;;;4.87;100.00
19128;BME280;9696;53.686;10.094;2023-05-19T01:19:18;102706.81;;;4.86;100.00
19128;BME280;9696;53.686;10.094;2023-05-19T01:22:17;102702.72;;;4.79;100.00
19128;BME280;9696;53.686;10.094;2023-05-19T01:25:34;102702.72;;;4.79;100.00
19128;BME280;9696;53.686;10.094;2023-05-19T01:28:21;102713.81;;;4.86;100.00
19128;BME280;9696;53.686;10.094;2023-05-19T01:30:55;102719.19;;;4.78;100.00
19128;BME280;9696;53.686;10.094;2023-05-19T01:33:27;102711.38;;;4.80;100.00
19128;BME280;9696;53.686;10.094;2023-05-19T01:35:58;102704.47;;;4.79;100.00
19128;BME280;9696;53.686;10.094;2023-05-19T01:38:30;102708.63;;;4.84;100.00
19128;BME280;9696;53.686;10.094;2023-05-19T01:41:02;102701.72;;;4.83;100.00
19128;BME280;9696;53.686;10.094;2023-05-19T01:43:35;102701.88;;;4.79;100.00
19128;BME280;9696;53.686;10.094;2023-05-19T01:46:07;102708.66;;;4.83;100.00
19128;BME280;9696;53.686;10.094;2023-05-19T01:48:37;102711.38;;;4.80;100.00
19128;BME280;9696;53.686;10.094;2023-05-19T01:51:06;102709.38;;;4.88;100.00
19128;BME280;9696;53.686;10.094;2023-05-19T01:53:35;102717.28;;;4.85;100.00
19128;BME280;9696;53.686;10.094;2023-05-19T01:56:05;102716.22;;;4.90;100.00
19128;BME280;9696;53.686;10.094;2023-05-19T01:58:40;102714.50;;;4.91;100.00
19128;BME280;9696;53.686;10.094;2023-05-19T02:01:20;102720.44;;;4.94;100.00
19128;BME280;9696;53.686;10.094;2023-05-19T02:04:01;102724.84;;;4.92;100.00
19128;BME280;9696;53.686;10.094;2023-05-19T02:06:40;102724.03;;;4.90;100.00
19128;BME280;9696;53.686;10.094;2023-05-19T02:09:17;102720.50;;;4.93;100.00
19128;BME280;9696;53.686;10.094;2023-05-19T02:11:53;102723.00;;;4.96;100.00
19128;BME280;9696;53.686;10.094;2023-05-19T02:14:29;102716.81;;;5.00;100.00
19128;BME280;9696;53.686;10.094;2023-05-19T02:17:04;102714.34;;;4.95;100.00
19128;BME280;9696;53.686;10.094;2023-05-19T02:19:38;102715.16;;;4.97;100.00
19128;BME280;9696;53.686;10.094;2023-05-19T02:22:08;102718.94;;;4.87;100.00
19128;BME280;9696;53.686;10.094;2023-05-19T02:24:37;102719.56;;;4.95;100.00
19128;BME280;9696;53.686;10.094;2023-05-19T02:27:08;102714.09;;;5.03;100.00
19128;BME280;9696;53.686;10.094;2023-05-19T02:29:37;102715.91;;;5.01;100.00
19128;BME280;9696;53.686;10.094;2023-05-19T02:32:08;102709.66;;;5.06;100.00
19128;BME280;9696;53.686;10.094;2023-05-19T02:34:37;102712.94;;;5.13;100.00
19128;BME280;9696;53.686;10.094;2023-05-19T02:37:06;102702.16;;;4.97;100.00
19128;BME280;9696;53.686;10.094;2023-05-19T02:39:36;102710.59;;;5.05;100.00
19128;BME280;9696;53.686;10.094;2023-05-19T02:42:05;102704.31;;;5.11;100.00
19128;BME280;9696;53.686;10.094;2023-05-19T02:44:34;102705.38;;;5.05;100.00
19128;BME280;9696;53.686;10.094;2023-05-19T02:47:03;102699.19;;;5.09;100.00
19128;BME280;9696;53.686;10.094;2023-05-19T02:49:34;102705.16;;;5.11;100.00
19128;BME280;9696;53.686;10.094;2023-05-19T02:52:04;102710.25;;;5.14;100.00
19128;BME280;9696;53.686;10.094;2023-05-19T02:54:34;102701.69;;;5.12;100.00
19128;BME280;9696;53.686;10.094;2023-05-19T02:57:03;102698.75;;;5.21;100.00
19128;BME280;9696;53.686;10.094;2023-05-19T02:59:33;102701.59;;;5.14;100.00
19128;BME280;9696;53.686;10.094;2023-05-19T03:02:03;102695.41;;;5.18;100.00
19128;BME280;9696;53.686;10.094;2023-05-19T03:04:34;102694.47;;;5.20;100.00
19128;BME280;9696;53.686;10.094;2023-05-19T03:07:08;102695.22;;;5.24;100.00
19128;BME280;9696;53.686;10.094;2023-05-19T03:09:40;102688.41;;;5.20;100.00
19128;BME280;9696;53.686;10.094;2023-05-19T03:12:09;102687.72;;;5.15;100.00
19128;BME280;9696;53.686;10.094;2023-05-19T03:14:38;102693.75;;;5.15;100.00
19128;BME280;9696;53.686;10.094;2023-05-19T03:17:08;102699.56;;;5.23;100.00
19128;BME280;9696;53.686;10.094;2023-05-19T03:19:39;102685.22;;;5.12;100.00
19128;BME280;9696;53.686;10.094;2023-05-19T03:22:08;102690.44;;;5.10;100.00
19128;BME280;9696;53.686;10.094;2023-05-19T03:24:37;102689.94;;;5.26;100.00
19128;BME280;9696;53.686;10.094;2023-05-19T03:27:07;102688.00;;;5.32;100.00
19128;BME280;9696;53.686;10.094;2023-05-19T03:29:37;102688.81;;;5.34;100.00
19128;BME280;9696;53.686;10.094;2023-05-19T03:32:06;102690.63;;;5.32;100.00
19128;BME280;9696;53.686;10.094;2023-05-19T03:34:37;102678.94;;;5.44;100.00
19128;BME280;9696;53.686;10.094;2023-05-19T03:37:07;102681.41;;;5.48;100.00
19128;BME280;9696;53.686;10.094;2023-05-19T03:39:38;102685.69;;;5.49;100.00
19128;BME280;9696;53.686;10.094;2023-05-19T03:42:07;102688.50;;;5.43;100.00
19128;BME280;9696;53.686;10.094;2023-05-19T03:44:37;102683.84;;;5.53;100.00
19128;BME280;9696;53.686;10.094;2023-05-19T03:47:06;102697.38;;;5.62;100.00
19128;BME280;9696;53.686;10.094;2023-05-19T03:49:58;102700.81;;;5.64;100.00
19128;BME280;9696;53.686;10.094;2023-05-19T03:52:41;102695.41;;;5.69;100.00
19128;BME280;9696;53.686;10.094;2023-05-19T03:55:32;102695.47;;;5.67;100.00
19128;BME280;9696;53.686;10.094;2023-05-19T03:58:04;102692.56;;;5.77;100.00
19128;BME280;9696;53.686;10.094;2023-05-19T04:00:33;102696.91;;;5.76;100.00
19128;BME280;9696;53.686;10.094;2023-05-19T04:03:03;102701.72;;;5.88;100.00
19128;BME280;9696;53.686;10.094;2023-05-19T04:05:35;102701.66;;;5.90;100.00
19128;BME280;9696;53.686;10.094;2023-05-19T04:08:04;102699.25;;;5.84;100.00
19128;BME280;9696;53.686;10.094;2023-05-19T04:10:33;102698.84;;;5.96;100.00
19128;BME280;9696;53.686;10.094;2023-05-19T04:13:03;102695.38;;;6.20;100.00
19128;BME280;9696;53.686;10.094;2023-05-19T04:15:32;102700.66;;;6.17;100.00
19128;BME280;9696;53.686;10.094;2023-05-19T04:18:01;102696.16;;;6.22;100.00
19128;BME280;9696;53.686;10.094;2023-05-19T04:20:30;102702.22;;;6.23;100.00
19128;BME280;9696;53.686;10.094;2023-05-19T04:23:01;102698.13;;;6.39;100.00
19128;BME280;9696;53.686;10.094;2023-05-19T04:25:30;102700.50;;;6.45;100.00
19128;BME280;9696;53.686;10.094;2023-05-19T04:28:00;102702.91;;;6.51;100.00
19128;BME280;9696;53.686;10.094;2023-05-19T04:30:30;102695.97;;;6.50;100.00
19128;BME280;9696;53.686;10.094;2023-05-19T04:33:00;102693.19;;;6.54;100.00
19128;BME280;9696;53.686;10.094;2023-05-19T04:35:32;102696.75;;;6.75;100.00
19128;BME280;9696;53.686;10.094;2023-05-19T04:38:03;102692.06;;;6.83;100.00
19128;BME280;9696;53.686;10.094;2023-05-19T04:40:34;102694.44;;;6.89;100.00
19128;BME280;9696;53.686;10.094;2023-05-19T04:43:03;102699.13;;;7.03;100.00
19128;BME280;9696;53.686;10.094;2023-05-19T04:45:34;102694.34;;;7.13;100.00
19128;BME280;9696;53.686;10.094;2023-05-19T04:48:05;102691.06;;;7.07;100.00
19128;BME280;9696;53.686;10.094;2023-05-19T04:50:34;102695.66;;;7.02;100.00
19128;BME280;9696;53.686;10.094;2023-05-19T04:53:07;102688.53;;;7.06;100.00
19128;BME280;9696;53.686;10.094;2023-05-19T04:55:36;102684.00;;;7.31;100.00
19128;BME280;9696;53.686;10.094;2023-05-19T04:58:06;102688.69;;;7.23;100.00
19128;BME280;9696;53.686;10.094;2023-05-19T05:00:36;102691.22;;;7.46;100.00
19128;BME280;9696;53.686;10.094;2023-05-19T05:03:07;102692.88;;;7.47;100.00
19128;BME280;9696;53.686;10.094;2023-05-19T05:05:37;102692.84;;;7.69;100.00
19128;BME280;9696;53.686;10.094;2023-05-19T05:08:09;102692.63;;;7.33;100.00
19128;BME280;9696;53.686;10.094;2023-05-19T05:10:42;102693.09;;;7.63;100.00
19128;BME280;9696;53.686;10.094;2023-05-19T05:13:12;102690.75;;;7.57;100.00
19128;BME280;9696;53.686;10.094;2023-05-19T05:15:42;102694.22;;;7.78;100.00
19128;BME280;9696;53.686;10.094;2023-05-19T05:18:13;102692.94;;;7.86;100.00
19128;BME280;9696;53.686;10.094;2023-05-19T05:20:43;102692.56;;;7.95;100.00
19128;BME280;9696;53.686;10.094;2023-05-19T05:23:15;102691.97;;;8.09;100.00
19128;BME280;9696;53.686;10.094;2023-05-19T05:25:47;102690.81;;;8.15;100.00
19128;BME280;9696;53.686;10.094;2023-05-19T05:28:17;102691.44;;;8.01;100.00
19128;BME280;9696;53.686;10.094;2023-05-19T05:30:47;102688.34;;;8.12;100.00
19128;BME280;9696;53.686;10.094;2023-05-19T05:33:18;102689.09;;;8.34;100.00
19128;BME280;9696;53.686;10.094;2023-05-19T05:35:49;102695.06;;;8.56;100.00
19128;BME280;9696;53.686;10.094;2023-05-19T05:38:20;102685.72;;;8.50;100.00
19128;BME280;9696;53.686;10.094;2023-05-19T05:40:49;102684.44;;;8.59;100.00
19128;BME280;9696;53.686;10.094;2023-05-19T05:43:18;102686.53;;;8.70;100.00
19128;BME280;9696;53.686;10.094;2023-05-19T05:45:53;102686.75;;;8.84;100.00
19128;BME280;9696;53.686;10.094;2023-05-19T05:48:23;102682.00;;;9.09;100.00
19128;BME280;9696;53.686;10.094;2023-05-19T05:50:53;102689.03;;;9.26;100.00
19128;BME280;9696;53.686;10.094;2023-05-19T05:53:29;102683.50;;;9.49;100.00
19128;BME280;9696;53.686;10.094;2023-05-19T05:56:01;102684.91;;;9.39;100.00
19128;BME280;9696;53.686;10.094;2023-05-19T05:58:39;102680.81;;;9.68;100.00
19128;BME280;9696;53.686;10.094;2023-05-19T06:01:08;102684.94;;;9.72;100.00
19128;BME280;9696;53.686;10.094;2023-05-19T06:03:41;102676.00;;;10.09;100.00
19128;BME280;9696;53.686;10.094;2023-05-19T06:06:14;102678.78;;;10.06;100.00
19128;BME280;9696;53.686;10.094;2023-05-19T06:08:45;102674.34;;;10.23;100.00
19128;BME280;9696;53.686;10.094;2023-05-19T06:11:15;102669.53;;;10.16;100.00
19128;BME280;9696;53.686;10.094;2023-05-19T06:13:44;102674.78;;;10.31;100.00
19128;BME280;9696;53.686;10.094;2023-05-19T06:16:21;102676.19;;;10.54;100.00
19128;BME280;9696;53.686;10.094;2023-05-19T06:18:53;102676.50;;;10.32;100.00
19128;BME280;9696;53.686;10.094;2023-05-19T06:21:22;102673.81;;;10.65;100.00
19128;BME280;9696;53.686;10.094;2023-05-19T06:23:53;102664.97;;;10.98;100.00
19128;BME280;9696;53.686;10.094;2023-05-19T06:26:22;102672.75;;;10.83;100.00
19128;BME280;9696;53.686;10.094;2023-05-19T06:28:51;102669.50;;;11.10;100.00
19128;BME280;9696;53.686;10.094;2023-05-19T06:31:20;102672.56;;;11.02;100.00
19128;BME280;9696;53.686;10.094;2023-05-19T06:33:53;102668.47;;;11.42;100.00
19128;BME280;9696;53.686;10.094;2023-05-19T06:36:22;102667.75;;;11.54;100.00
19128;BME280;9696;53.686;10.094;2023-05-19T06:38:55;102673.09;;;11.53;100.00
19128;BME280;9696;53.686;10.094;2023-05-19T06:41:28;102661.09;;;11.63;100.00
19128;BME280;9696;53.686;10.094;2023-05-19T06:43:57;102665.97;;;11.55;100.00
19128;BME280;9696;53.686;10.094;2023-05-19T06:46:26;102668.00;;;11.94;100.00
19128;BME280;9696;53.686;10.094;2023-05-19T06:48:55;102656.13;;;12.43;100.00
19128;BME280;9696;53.686;10.094;2023-05-19T06:51:26;102659.06;;;12.92;100.00
19128;BME280;9696;53.686;10.094;2023-05-19T06:53:58;102663.53;;;12.77;100.00
19128;BME280;9696;53.686;10.094;2023-05-19T06:56:28;102654.06;;;13.54;100.00
19128;BME280;9696;53.686;10.094;2023-05-19T06:58:57;102651.66;;;13.51;100.00
19128;BME280;9696;53.686;10.094;2023-05-19T07:01:32;102662.41;;;13.86;100.00
19128;BME280;9696;53.686;10.094;2023-05-19T07:04:01;102658.81;;;13.61;100.00
19128;BME280;9696;53.686;10.094;2023-05-19T07:06:30;102661.50;;;14.23;100.00
19128;BME280;9696;53.686;10.094;2023-05-19T07:09:02;102654.06;;;13.79;100.00
19128;BME280;9696;53.686;10.094;2023-05-19T07:11:32;102657.72;;;14.63;100.00
19128;BME280;9696;53.686;10.094;2023-05-19T07:14:02;102669.19;;;14.99;100.00
19128;BME280;9696;53.686;10.094;2023-05-19T07:16:32;102664.28;;;14.82;100.00
19128;BME280;9696;53.686;10.094;2023-05-19T07:19:01;102667.81;;;14.70;100.00
19128;BME280;9696;53.686;10.094;2023-05-19T07:21:30;102662.59;;;15.39;100.00
19128;BME280;9696;53.686;10.094;2023-05-19T07:24:01;102665.63;;;15.11;100.00
19128;BME280;9696;53.686;10.094;2023-05-19T07:26:30;102664.03;;;15.78;100.00
19128;BME280;9696;53.686;10.094;2023-05-19T07:28:59;102657.69;;;15.11;100.00
19128;BME280;9696;53.686;10.094;2023-05-19T07:31:28;102659.28;;;15.48;100.00
19128;BME280;9696;53.686;10.094;2023-05-19T07:33:58;102654.72;;;15.50;100.00
19128;BME280;9696;53.686;10.094;2023-05-19T07:36:27;102653.44;;;15.89;100.00
19128;BME280;9696;53.686;10.094;2023-05-19T07:38:56;102654.28;;;15.90;100.00
19128;BME280;9696;53.686;10.094;2023-05-19T07:41:27;102656.19;;;16.21;100.00
19128;BME280;9696;53.686;10.094;2023-05-19T07:43:56;102658.50;;;16.80;100.00
19128;BME280;9696;53.686;10.094;2023-05-19T07:46:25;102658.38;;;16.16;100.00
19128;BME280;9696;53.686;10.094;2023-05-19T07:48:54;102662.38;;;15.99;100.00
19128;BME280;9696;53.686;10.094;2023-05-19T07:51:23;102645.19;;;17.02;100.00
19128;BME280;9696;53.686;10.094;2023-05-19T07:53:53;102656.81;;;17.11;100.00
19128;BME280;9696;53.686;10.094;2023-05-19T07:56:22;102649.50;;;16.71;100.00
19128;BME280;9696;53.686;10.094;2023-05-19T07:58:53;102653.28;;;17.21;100.00
19128;BME280;9696;53.686;10.094;2023-05-19T08:01:22;102649.53;;;16.49;100.00
19128;BME280;9696;53.686;10.094;2023-05-19T08:03:51;102641.38;;;16.30;100.00
19128;BME280;9696;53.686;10.094;2023-05-19T08:06:21;102650.19;;;15.97;100.00
19128;BME280;9696;53.686;10.094;2023-05-19T08:08:52;102649.41;;;16.39;100.00
19128;BME280;9696;53.686;10.094;2023-05-19T08:11:21;102649.69;;;16.25;100.00
19128;BME280;9696;53.686;10.094;2023-05-19T08:13:52;102648.84;;;16.58;100.00
19128;BME280;9696;53.686;10.094;2023-05-19T08:16:21;102649.69;;;16.59;100.00
19128;BME280;9696;53.686;10.094;2023-05-19T08:18:51;102647.75;;;16.16;100.00
19128;BME280;9696;53.686;10.094;2023-05-19T08:21:20;102641.94;;;16.99;100.00
19128;BME280;9696;53.686;10.094;2023-05-19T08:23:49;102642.75;;;16.99;100.00
19128;BME280;9696;53.686;10.094;2023-05-19T08:26:18;102645.72;;;17.37;100.00
19128;BME280;9696;53.686;10.094;2023-05-19T08:28:48;102643.09;;;17.26;100.00
19128;BME280;9696;53.686;10.094;2023-05-19T08:31:19;102656.53;;;16.28;100.00
19128;BME280;9696;53.686;10.094;2023-05-19T08:33:49;102649.88;;;16.56;100.00
19128;BME280;9696;53.686;10.094;2023-05-19T08:36:18;102644.63;;;16.87;100.00
19128;BME280;9696;53.686;10.094;2023-05-19T08:38:48;102645.09;;;16.38;100.00
19128;BME280;9696;53.686;10.094;2023-05-19T08:41:18;102649.38;;;16.73;100.00
19128;BME280;9696;53.686;10.094;2023-05-19T08:43:48;102646.69;;;16.84;100.00
19128;BME280;9696;53.686;10.094;2023-05-19T08:46:21;102638.78;;;16.73;100.00
19128;BME280;9696;53.686;10.094;2023-05-19T08:48:56;102633.22;;;17.28;100.00
19128;BME280;9696;53.686;10.094;2023-05-19T08:51:32;102642.09;;;15.65;100.00
19128;BME280;9696;53.686;10.094;2023-05-19T08:54:13;102637.31;;;16.80;100.00
19128;BME280;9696;53.686;10.094;2023-05-19T08:56:43;102628.13;;;16.84;100.00
19128;BME280;9696;53.686;10.094;2023-05-19T08:59:13;102628.34;;;16.60;100.00
19128;BME280;9696;53.686;10.094;2023-05-19T09:01:44;102624.91;;;17.42;100.00
19128;BME280;9696;53.686;10.094;2023-05-19T09:04:15;102624.94;;;17.01;100.00
19128;BME280;9696;53.686;10.094;2023-05-19T09:06:44;102632.75;;;15.72;100.00
19128;BME280;9696;53.686;10.094;2023-05-19T09:09:14;102618.84;;;16.89;100.00
19128;BME280;9696;53.686;10.094;2023-05-19T09:11:45;102618.84;;;17.52;100.00
19128;BME280;9696;53.686;10.094;2023-05-19T09:14:14;102607.31;;;17.62;100.00
19128;BME280;9696;53.686;10.094;2023-05-19T09:16:46;102603.25;;;17.88;100.00
19128;BME280;9696;53.686;10.094;2023-05-19T09:19:18;102606.00;;;17.77;100.00
19128;BME280;9696;53.686;10.094;2023-05-19T09:21:57;102610.16;;;18.69;100.00
19128;BME280;9696;53.686;10.094;2023-05-19T09:24:27;102615.13;;;18.24;100.00
19128;BME280;9696;53.686;10.094;2023-05-19T09:26:57;102605.00;;;17.78;100.00
19128;BME280;9696;53.686;10.094;2023-05-19T09:29:27;102616.69;;;17.66;100.00
19128;BME280;9696;53.686;10.094;2023-05-19T09:31:57;102609.53;;;18.27;100.00
19128;BME280;9696;53.686;10.094;2023-05-19T09:34:28;102605.75;;;18.49;100.00
19128;BME280;9696;53.686;10.094;2023-05-19T09:36:58;102610.78;;;18.33;100.00
19128;BME280;9696;53.686;10.094;2023-05-19T09:39:27;102601.88;;;17.64;100.00
19128;BME280;9696;53.686;10.094;2023-05-19T09:41:57;102606.91;;;17.57;100.00
19128;BME280;9696;53.686;10.094;2023-05-19T09:44:27;102611.03;;;18.20;100.00
19128;BME280;9696;53.686;10.094;2023-05-19T09:46:58;102599.66;;;16.65;100.00
19128;BME280;9696;53.686;10.094;2023-05-19T09:49:28;102613.03;;;17.16;100.00
19128;BME280;9696;53.686;10.094;2023-05-19T09:52:01;102613.13;;;15.97;100.00
19128;BME280;9696;53.686;10.094;2023-05-19T09:54:32;102609.63;;;17.56;100.00
19128;BME280;9696;53.686;10.094;2023-05-19T09:57:03;102596.75;;;17.72;100.00
19128;BME280;9696;53.686;10.094;2023-05-19T09:59:35;102603.34;;;17.77;100.00
19128;BME280;9696;53.686;10.094;2023-05-19T10:02:11;102594.09;;;17.72;100.00
19128;BME280;9696;53.686;10.094;2023-05-19T10:04:43;102596.59;;;18.13;100.00
19128;BME280;9696;53.686;10.094;2023-05-19T10:07:14;102592.75;;;18.36;100.00
19128;BME280;9696;53.686;10.094;2023-05-19T10:09:44;102590.44;;;18.03;100.00
19128;BME280;9696;53.686;10.094;2023-05-19T10:12:14;102595.63;;;17.65;100.00
19128;BME280;9696;53.686;10.094;2023-05-19T10:14:44;102586.47;;;18.47;100.00
19128;BME280;9696;53.686;10.094;2023-05-19T10:17:15;102577.97;;;18.53;100.00
19128;BME280;9696;53.686;10.094;2023-05-19T10:19:45;102583.22;;;17.75;100.00
19128;BME280;9696;53.686;10.094;2023-05-19T10:22:15;102576.75;;;17.47;100.00
19128;BME280;9696;53.686;10.094;2023-05-19T10:24:44;102579.78;;;18.62;100.00
19128;BME280;9696;53.686;10.094;2023-05-19T10:27:14;102575.31;;;18.63;100.00
19128;BME280;9696;53.686;10.094;2023-05-19T10:29:48;102578.81;;;16.92;100.00
19128;BME280;9696;53.686;10.094;2023-05-19T10:32:22;102569.38;;;18.30;100.00
19128;BME280;9696;53.686;10.094;2023-05-19T10:37:58;102560.66;;;19.34;95.64
19128;BME280;9696;53.686;10.094;2023-05-19T10:40:35;102564.66;;;18.82;98.20
19128;BME280;9696;53.686;10.094;2023-05-19T10:43:14;102570.97;;;18.91;97.29
19128;BME280;9696;53.686;10.094;2023-05-19T10:45:52;102567.75;;;18.77;93.43
19128;BME280;9696;53.686;10.094;2023-05-19T10:48:23;102564.88;;;19.17;95.29
19128;BME280;9696;53.686;10.094;2023-05-19T10:50:53;102561.75;;;19.41;92.34
19128;BME280;9696;53.686;10.094;2023-05-19T10:53:30;102564.59;;;19.30;92.25
19128;BME280;9696;53.686;10.094;2023-05-19T10:56:01;102560.19;;;18.73;90.07
19128;BME280;9696;53.686;10.094;2023-05-19T10:58:48;102549.22;;;19.88;91.27
19128;BME280;9696;53.686;10.094;2023-05-19T11:01:19;102554.63;;;18.76;89.20
19128;BME280;9696;53.686;10.094;2023-05-19T11:03:54;102564.66;;;18.44;99.26
19128;BME280;9696;53.686;10.094;2023-05-19T11:06:25;102549.13;;;19.80;91.81
19128;BME280;9696;53.686;10.094;2023-05-19T11:08:57;102557.81;;;19.55;91.10
19128;BME280;9696;53.686;10.094;2023-05-19T11:11:45;102559.50;;;18.52;87.42
19128;BME280;9696;53.686;10.094;2023-05-19T11:14:17;102554.41;;;19.06;85.30
19128;BME280;9696;53.686;10.094;2023-05-19T11:16:48;102547.72;;;20.03;84.67
19128;BME280;9696;53.686;10.094;2023-05-19T11:19:24;102546.25;;;19.64;89.14
19128;BME280;9696;53.686;10.094;2023-05-19T11:21:54;102543.75;;;19.62;89.31
19128;BME280;9696;53.686;10.094;2023-05-19T11:24:36;102534.72;;;20.00;84.51
19128;BME280;9696;53.686;10.094;2023-05-19T11:27:20;102534.47;;;20.39;85.34
19128;BME280;9696;53.686;10.094;2023-05-19T11:29:51;102524.56;;;20.49;82.53
19128;BME280;9696;53.686;10.094;2023-05-19T11:32:21;102538.53;;;19.43;85.70
19128;BME280;9696;53.686;10.094;2023-05-19T11:34:52;102534.78;;;20.53;84.17
19128;BME280;9696;53.686;10.094;2023-05-19T11:37:22;102524.53;;;20.13;84.50
19128;BME280;9696;53.686;10.094;2023-05-19T11:39:52;102530.03;;;19.57;86.66
19128;BME280;9696;53.686;10.094;2023-05-19T11:42:21;102522.22;;;19.83;84.68
19128;BME280;9696;53.686;10.094;2023-05-19T11:44:54;102518.25;;;19.87;87.54
19128;BME280;9696;53.686;10.094;2023-05-19T11:47:24;102521.75;;;19.60;87.23
19128;BME280;9696;53.686;10.094;2023-05-19T11:49:55;102513.97;;;19.76;83.71
19128;BME280;9696;53.686;10.094;2023-05-19T11:52:25;102526.31;;;20.58;79.50
19128;BME280;9696;53.686;10.094;2023-05-19T11:54:55;102508.97;;;20.80;79.68
19128;BME280;9696;53.686;10.094;2023-05-19T11:57:28;102522.28;;;20.36;79.18
19128;BME280;9696;53.686;10.094;2023-05-19T12:00:01;102526.59;;;19.38;83.38
19128;BME280;9696;53.686;10.094;2023-05-19T12:02:32;102512.72;;;19.98;84.76
19128;BME280;9696;53.686;10.094;2023-05-19T12:05:03;102516.06;;;20.71;75.13
19128;BME280;9696;53.686;10.094;2023-05-19T12:07:32;102517.56;;;20.65;79.13
19128;BME280;9696;53.686;10.094;2023-05-19T12:10:02;102508.38;;;20.15;76.35
19128;BME280;9696;53.686;10.094;2023-05-19T12:12:32;102517.28;;;20.33;83.36
19128;BME280;9696;53.686;10.094;2023-05-19T12:15:02;102521.53;;;20.61;77.75
19128;BME280;9696;53.686;10.094;2023-05-19T12:17:32;102511.16;;;20.41;80.38
19128;BME280;9696;53.686;10.094;2023-05-19T12:20:03;102510.84;;;20.61;76.12
19128;BME280;9696;53.686;10.094;2023-05-19T12:22:32;102502.31;;;20.22;77.72
19128;BME280;9696;53.686;10.094;2023-05-19T12:25:02;102502.38;;;19.68;72.51
19128;BME280;9696;53.686;10.094;2023-05-19T12:27:35;102500.88;;;20.46;71.29
19128;BME280;9696;53.686;10.094;2023-05-19T12:30:06;102493.88;;;20.88;67.86
19128;BME280;9696;53.686;10.094;2023-05-19T12:32:35;102496.78;;;21.21;69.78
19128;BME280;9696;53.686;10.094;2023-05-19T12:35:07;102497.47;;;21.05;72.22
19128;BME280;9696;53.686;10.094;2023-05-19T12:37:39;102489.69;;;21.45;60.41
19128;BME280;9696;53.686;10.094;2023-05-19T12:40:13;102485.16;;;21.38;63.30
19128;BME280;9696;53.686;10.094;2023-05-19T12:42:44;102494.34;;;20.84;65.54
19128;BME280;9696;53.686;10.094;2023-05-19T12:45:13;102488.78;;;20.34;66.28
19128;BME280;9696;53.686;10.094;2023-05-19T12:47:47;102495.63;;;20.54;60.03
19128;BME280;9696;53.686;10.094;2023-05-19T12:50:18;102479.03;;;20.42;61.78
19128;BME280;9696;53.686;10.094;2023-05-19T12:52:48;102479.38;;;20.91;68.57
19128;BME280;9696;53.686;10.094;2023-05-19T12:55:19;102483.41;;;20.95;72.14
19128;BME280;9696;53.686;10.094;2023-05-19T12:57:51;102485.56;;;19.67;75.55
19128;BME280;9696;53.686;10.094;2023-05-19T13:00:22;102486.31;;;19.60;74.58
19128;BME280;9696;53.686;10.094;2023-05-19T13:02:58;102478.38;;;20.92;69.13
19128;BME280;9696;53.686;10.094;2023-05-19T13:05:31;102482.53;;;19.80;76.11
19128;BME280;9696;53.686;10.094;2023-05-19T13:08:04;102482.50;;;20.60;64.92
19128;BME280;9696;53.686;10.094;2023-05-19T13:10:35;102472.09;;;20.75;62.79